KWVI/WVI METAR and TAF weather

Enter ICAO airport designator
Station Type Date Time Source
KWVI METAR 2022/06/28 23:53 UTC NOAA

KWVI 282353Z AUTO 19008KT 10SM CLR 23/12 A3000 RMK AO2 SLP159 T02330117 10261 20211 56014


Station Type Date Time Source
KWVI Decoded METAR 2022/06/28 23:53 UTC NOAA

WATSONVILLE MUNICIPAL AIRPORT , CA, United States (KWVI) 36-56N 121-47W 43M
Jun 28, 2022 - 07:53 PM EDT / 2022.06.28 2353 UTC
Wind: from the S (190 degrees) at 9 MPH (8 KT):0
Visibility: 10 mile(s):0
Sky conditions: clear
Temperature: 73.9 F (23.3 C)
Dew Point: 53.1 F (11.7 C)
Relative Humidity: 48%
Pressure (altimeter): 30 in. Hg (1015 hPa)
Pressure tendency: 0.04 inches (1.4 hPa) lower than three hours ago
ob: KWVI 282353Z AUTO 19008KT 10SM CLR 23/12 A3000 RMK AO2 SLP159 T02330117 10261 20211 56014
cycle: 0

Station Type Date Time Source
KWVI TAF UTC NOAA

Error!

Example: see airport list